createdAt,value
2024-02-13T00:00:59.441Z,271.20
2024-02-13T00:01:59.059Z,270.50
2024-02-13T00:02:59.202Z,260.40
2024-02-13T00:04:00.554Z,256.50
2024-02-13T00:04:59.045Z,267.20
2024-02-13T00:05:59.923Z,264.40
2024-02-13T00:06:59.041Z,261.20
2024-02-13T00:07:59.170Z,281.60
2024-02-13T00:09:32.680Z,287.30
2024-02-13T00:13:07.108Z,410.20
2024-02-13T00:14:07.181Z,424.40
2024-02-13T00:15:08.535Z,340.60
2024-02-13T00:25:00.418Z,398.00
2024-02-13T00:26:01.793Z,350.80
2024-02-13T00:27:01.833Z,398.00
2024-02-13T00:28:01.588Z,374.40
2024-02-13T00:29:01.370Z,309.30
2024-02-13T00:30:01.510Z,292.20
2024-02-13T00:31:01.378Z,292.80
2024-02-13T00:32:01.304Z,308.00
2024-02-13T00:33:01.528Z,300.30
2024-02-13T00:34:01.393Z,301.40
2024-02-13T00:35:01.356Z,302.80
2024-02-13T00:36:01.443Z,339.40
2024-02-13T00:37:01.314Z,337.40
2024-02-13T00:38:01.499Z,345.10
2024-02-13T00:39:01.459Z,326.60
2024-02-13T00:40:01.508Z,341.10
2024-02-13T00:41:01.534Z,352.60
2024-02-13T00:42:02.249Z,389.50
2024-02-13T00:43:01.549Z,362.80
2024-02-13T00:44:01.403Z,364.40
2024-02-13T00:45:02.166Z,391.00
2024-02-13T00:46:02.598Z,396.80
2024-02-13T00:54:51.639Z,436.70
2024-02-13T00:55:52.992Z,382.90
2024-02-13T00:56:54.380Z,322.10
2024-02-13T00:57:52.977Z,301.10
2024-02-13T00:58:52.851Z,262.00
2024-02-13T00:59:52.927Z,293.00
2024-02-13T01:00:52.762Z,298.80
2024-02-13T01:01:52.721Z,300.00
2024-02-13T01:02:52.849Z,283.00
2024-02-13T01:03:52.757Z,283.50
2024-02-13T01:04:52.659Z,268.90
2024-02-13T01:05:54.040Z,250.30
2024-02-13T01:06:52.747Z,256.60
2024-02-13T01:07:53.309Z,294.20
2024-02-13T01:08:53.176Z,310.80
2024-02-13T01:09:53.317Z,328.50
2024-02-13T01:10:52.954Z,292.10
2024-02-13T01:11:53.370Z,321.70
2024-02-13T01:12:52.849Z,347.10
2024-02-13T01:13:52.724Z,369.30
2024-02-13T01:14:53.441Z,355.10
2024-02-13T01:15:52.777Z,330.80
2024-02-13T01:16:53.355Z,336.00
2024-02-13T01:17:52.835Z,370.20
2024-02-13T01:18:53.112Z,622.40
2024-02-13T01:19:52.584Z,601.90
2024-02-13T01:20:53.063Z,565.50
2024-02-13T01:21:52.724Z,595.90
2024-02-13T01:22:52.671Z,508.00
2024-02-13T01:23:52.754Z,512.70
2024-02-13T01:24:52.727Z,500.50
2024-02-13T01:25:53.354Z,558.10
2024-02-13T01:26:52.819Z,546.20
2024-02-13T01:27:52.741Z,521.20
2024-02-13T01:28:52.653Z,558.00
2024-02-13T01:30:26.949Z,578.70
2024-02-13T01:30:52.734Z,731.80
2024-02-13T01:32:25.217Z,639.10
2024-02-13T01:33:29.587Z,594.60
2024-02-13T01:34:25.986Z,618.70
2024-02-13T01:35:26.248Z,684.60
2024-02-13T01:35:52.814Z,640.60
2024-02-13T01:37:26.806Z,665.70
2024-02-13T01:37:52.709Z,662.80
2024-02-13T01:39:25.740Z,655.20
2024-02-13T01:40:27.611Z,640.90
2024-02-13T01:41:35.347Z,628.10
2024-02-13T01:42:28.249Z,635.40
2024-02-13T01:42:52.858Z,652.60
2024-02-13T01:43:52.809Z,659.50
2024-02-13T01:44:52.969Z,724.10
2024-02-13T01:45:52.533Z,693.80
2024-02-13T01:46:52.496Z,688.40
2024-02-13T01:47:52.700Z,696.70
2024-02-13T01:48:53.058Z,726.80
2024-02-13T01:49:52.525Z,733.30
2024-02-13T01:50:52.537Z,738.80
2024-02-13T01:51:52.993Z,792.40
2024-02-13T01:52:52.999Z,768.10
2024-02-13T01:53:52.600Z,775.90
2024-02-13T01:54:52.598Z,774.10
2024-02-13T01:55:53.521Z,778.90
2024-02-13T01:56:52.634Z,805.70
2024-02-13T01:57:52.497Z,796.50
2024-02-13T01:58:52.529Z,773.00
2024-02-13T01:59:52.538Z,773.10
2024-02-13T02:00:52.637Z,698.20
2024-02-13T02:01:52.467Z,656.30
2024-02-13T02:02:52.575Z,700.40
2024-02-13T02:03:52.998Z,661.10
2024-02-13T02:04:52.407Z,621.90
2024-02-13T02:05:52.559Z,595.00
2024-02-13T02:06:52.734Z,652.00
2024-02-13T02:07:52.376Z,607.80
2024-02-13T02:08:52.344Z,659.00
2024-02-13T02:09:52.274Z,683.30
2024-02-13T02:10:52.232Z,565.00
2024-02-13T02:11:52.495Z,569.60
2024-02-13T02:12:52.256Z,590.50
2024-02-13T02:13:53.205Z,583.40
2024-02-13T02:14:52.306Z,648.00
2024-02-13T02:15:52.222Z,690.80
2024-02-13T04:10:25.794Z,18.50
2024-02-13T04:12:55.465Z,35.10
2024-02-13T04:12:57.577Z,34.80
2024-02-13T04:13:57.750Z,30.50
2024-02-13T04:14:57.533Z,38.90
2024-02-13T04:15:57.516Z,34.70
2024-02-13T04:16:57.287Z,39.50
2024-02-13T04:17:57.969Z,37.10
2024-02-13T04:18:57.675Z,41.70
2024-02-13T04:19:57.303Z,33.90
2024-02-13T04:20:57.481Z,33.40
2024-02-13T04:21:58.363Z,34.90
2024-02-13T04:22:57.294Z,33.70
2024-02-13T04:23:57.502Z,36.70
2024-02-13T04:24:57.310Z,41.90
2024-02-13T04:25:57.976Z,36.40
2024-02-13T04:26:57.957Z,43.30
2024-02-13T04:30:29.112Z,42.60
2024-02-13T04:31:29.339Z,44.50
2024-02-13T04:32:30.836Z,46.40
2024-02-13T04:33:30.904Z,46.20
2024-02-13T04:34:31.460Z,47.30
2024-02-13T04:35:30.393Z,47.40
2024-02-13T04:36:30.318Z,48.50
2024-02-13T04:37:30.334Z,52.60
2024-02-13T04:38:30.351Z,54.80
2024-02-13T04:39:30.365Z,56.60
2024-02-13T04:40:30.309Z,52.20
2024-02-13T04:41:30.775Z,51.20
2024-02-13T04:42:31.296Z,53.20
2024-02-13T04:59:13.166Z,57.20
2024-02-13T05:00:11.199Z,53.60
2024-02-13T05:01:11.083Z,57.90
2024-02-13T05:02:11.067Z,72.60
2024-02-13T05:03:10.885Z,74.20
2024-02-13T05:04:11.383Z,66.70
2024-02-13T05:05:10.933Z,62.90
2024-02-13T05:06:11.022Z,59.80
2024-02-13T05:07:11.656Z,66.40
2024-02-13T05:08:11.777Z,68.40
2024-02-13T05:09:10.687Z,70.80
2024-02-13T05:10:10.872Z,76.70
2024-02-13T05:11:10.789Z,81.10
2024-02-13T05:12:10.727Z,79.90
2024-02-13T05:13:10.754Z,78.50
2024-02-13T05:14:10.716Z,71.80
2024-02-13T05:15:10.728Z,77.90
2024-02-13T05:16:10.695Z,90.70
2024-02-13T05:17:10.702Z,84.80
2024-02-13T05:18:10.876Z,94.20
2024-02-13T05:19:10.768Z,124.50
2024-02-13T05:20:10.914Z,99.80
2024-02-13T05:21:11.142Z,116.30
2024-02-13T05:22:10.776Z,123.20
2024-02-13T05:23:10.775Z,119.30
2024-02-13T05:24:11.703Z,110.10
2024-02-13T05:25:10.774Z,103.10
2024-02-13T05:26:10.803Z,126.00
2024-02-13T05:27:10.775Z,159.20
2024-02-13T05:28:10.766Z,155.20
2024-02-13T05:29:10.818Z,164.70
2024-02-13T05:30:10.801Z,174.90
2024-02-13T05:31:10.725Z,255.00
2024-02-13T05:32:10.667Z,247.10
2024-02-13T05:33:10.831Z,243.70
2024-02-13T05:34:10.750Z,258.20
2024-02-13T05:35:11.663Z,313.70
2024-02-13T05:36:10.659Z,304.00
2024-02-13T05:37:11.046Z,329.80
2024-02-13T05:49:51.352Z,406.20
2024-02-13T05:50:53.058Z,312.10
2024-02-13T05:51:52.737Z,314.10
2024-02-13T05:52:52.534Z,288.80
2024-02-13T05:53:53.311Z,295.70
2024-02-13T05:54:52.699Z,278.70
2024-02-13T05:55:52.592Z,268.60
